الصفحة الرئيسية
METAR-TAF:

METAR-TAF

مطار :

مطار سوكارنو هاتا الدولي

جاكارتا, جاوة, إندونيسيا

دائرة عرض: 06-07S, خط طول: 106-39E, ارتفاع: 8 متر

مراقبة الطقس الحالي

تاريخ ووقت الإصدار 27 دقيقة قبل الساعة 10:00UTC
ريح 9 عقدة من الشمال الشرقي
درجة الحرارة 31°درجة مئوية
الرطوبة 59%
ضغط 1007 hPa
الرؤية 10 كم أو أكثر
غيوم قليلة على ارتفاع 2000 قدم

METAR: WIII 291000Z 05009KT 9999 FEW020 31/22 Q1007 NOSIG

زمن: 17:27 (10:27 UTC)

توقعات

تاريخ ووقت الإصدار 5ساعات و 27 دقيقة قبل الساعة 05:00UTC
التوقعات صالحة من29 الساعة 06 UTC إلى 30 الساعة 12 UTC
ريح 11 عقدة من الشرق/الشمال الشرقي
الرؤية: 8000 متر
غيوم متفرقة على ارتفاع 2000 قدم
أصبح
من 29 الساعة 11 UTC إلى 29 الساعة 13 UTC
ريح 6 عقدة من الغرب/الجنوب الغربي

TAF: WIII 290500Z 2906/3012 06011KT 8000 SCT020 BECMG 2911/2913 24006KT

أرصاد الطقس والتوقعات من أكثر من 4000 مطار (تقارير الطقس للمطار METAR والتنبؤ بالطقس بالمطارTAF).

المحطات المتاحة هي النقط الصفراء والحمراء على الخريطة.

حرك المؤشر فوق النقطة لمعرفة اسم المحطة.

ثم انقر لمعرفة أرصاد وتوقعات الطقس.

لتغيير الخارطة: اضغط على الأزرار الخضراء مع رمز الصليب الأسود للتكبير. على الزر الأخضر مع شرطة للتصغير، أو على الأسهم الخضراء للخرائط المجاورة.


METAR-TAF: